createdAt,value
2022-09-01T00:01:50.217Z,2.50
2022-09-01T00:04:20.707Z,2.20
2022-09-01T00:06:48.729Z,1.80
2022-09-01T00:09:18.958Z,2.30
2022-09-01T00:11:50.771Z,2.50
2022-09-01T00:14:28.635Z,1.80
2022-09-01T00:16:59.642Z,1.70
2022-09-01T00:19:29.041Z,2.00
2022-09-01T00:21:56.871Z,1.80
2022-09-01T00:24:25.819Z,1.80
2022-09-01T00:26:54.594Z,1.60
2022-09-01T00:29:23.197Z,1.60
2022-09-01T00:31:51.102Z,1.70
2022-09-01T00:34:19.181Z,1.70
2022-09-01T00:36:47.623Z,1.50
2022-09-01T00:39:15.409Z,1.70
2022-09-01T00:41:45.604Z,1.80
2022-09-01T00:44:18.343Z,1.80
2022-09-01T00:46:51.027Z,2.30
2022-09-01T00:49:30.255Z,1.70
2022-09-01T00:52:06.777Z,1.40
2022-09-01T00:54:39.955Z,1.90
2022-09-01T00:57:09.983Z,1.60
2022-09-01T00:59:43.333Z,1.80
2022-09-01T01:02:10.989Z,1.90
2022-09-01T01:04:40.833Z,1.80
2022-09-01T01:07:08.937Z,1.40
2022-09-01T01:09:41.783Z,2.00
2022-09-01T01:12:13.020Z,1.40
2022-09-01T01:14:41.058Z,1.40
2022-09-01T01:17:08.612Z,1.30
2022-09-01T01:20:00.459Z,1.50
2022-09-01T01:22:57.104Z,1.80
2022-09-01T01:25:25.458Z,1.60
2022-09-01T01:28:02.854Z,1.40
2022-09-01T01:30:35.367Z,1.80
2022-09-01T01:33:04.495Z,1.70
2022-09-01T01:35:33.460Z,1.40
2022-09-01T01:38:03.033Z,2.00
2022-09-01T01:40:32.232Z,1.90
2022-09-01T01:43:01.445Z,1.50
2022-09-01T01:45:29.794Z,1.80
2022-09-01T01:47:57.951Z,1.40
2022-09-01T01:50:34.995Z,1.60
2022-09-01T01:53:11.345Z,1.40
2022-09-01T01:55:41.236Z,1.50
2022-09-01T01:58:11.287Z,1.60
2022-09-01T02:00:39.409Z,1.80
2022-09-01T02:03:10.424Z,1.60
2022-09-01T02:05:38.949Z,1.40
2022-09-01T02:08:10.869Z,1.30
2022-09-01T02:10:43.386Z,1.50
2022-09-01T02:13:15.754Z,1.40
2022-09-01T02:15:45.722Z,1.50
2022-09-01T02:18:17.437Z,1.30
2022-09-01T02:20:47.101Z,1.50
2022-09-01T02:23:17.464Z,1.60
2022-09-01T02:26:13.962Z,1.30
2022-09-01T02:28:43.547Z,1.10
2022-09-01T02:31:12.571Z,1.40
2022-09-01T02:33:44.923Z,1.40
2022-09-01T02:36:14.859Z,1.20
2022-09-01T02:38:47.205Z,1.20
2022-09-01T02:41:23.143Z,1.10
2022-09-01T02:43:51.558Z,1.50
2022-09-01T02:46:22.809Z,1.70
2022-09-01T02:48:54.277Z,1.40
2022-09-01T02:51:27.495Z,1.10
2022-09-01T02:53:55.186Z,1.30
2022-09-01T02:56:26.670Z,1.40
2022-09-01T02:58:55.016Z,1.40
2022-09-01T03:01:25.711Z,1.30
2022-09-01T03:03:56.125Z,1.10
2022-09-01T03:06:25.316Z,1.10
2022-09-01T03:08:55.111Z,1.20
2022-09-01T03:11:23.896Z,1.40
2022-09-01T03:13:53.272Z,1.20
2022-09-01T03:16:22.110Z,1.40
2022-09-01T03:18:50.720Z,1.50
2022-09-01T03:21:18.731Z,1.30
2022-09-01T03:23:48.618Z,1.50
2022-09-01T03:26:18.708Z,1.50
2022-09-01T03:28:47.270Z,1.20
2022-09-01T03:31:16.219Z,1.40
2022-09-01T03:33:44.229Z,1.30
2022-09-01T03:36:18.693Z,1.40
2022-09-01T03:38:48.777Z,2.10
2022-09-01T03:41:18.676Z,1.20
2022-09-01T03:43:48.278Z,1.30
2022-09-01T03:46:20.891Z,1.50
2022-09-01T03:48:50.700Z,1.40
2022-09-01T03:51:20.382Z,1.60
2022-09-01T03:53:48.671Z,1.50
2022-09-01T03:56:21.016Z,1.80
2022-09-01T03:58:48.821Z,1.60
2022-09-01T04:01:16.688Z,1.60
2022-09-01T04:03:48.403Z,1.50
2022-09-01T04:06:18.781Z,2.10
2022-09-01T04:08:46.656Z,1.60
2022-09-01T04:11:17.953Z,1.80
2022-09-01T04:13:46.635Z,1.20
2022-09-01T04:16:41.873Z,1.50
2022-09-01T04:19:19.453Z,1.30
2022-09-01T04:21:49.569Z,1.60
2022-09-01T04:24:18.239Z,1.50
2022-09-01T04:26:49.006Z,1.50
2022-09-01T04:29:18.674Z,1.70
2022-09-01T04:31:52.908Z,1.80
2022-09-01T04:34:24.312Z,1.40
2022-09-01T04:36:55.246Z,2.10
2022-09-01T04:39:24.764Z,1.80
2022-09-01T04:41:52.792Z,1.50
2022-09-01T04:44:21.535Z,1.60
2022-09-01T04:46:50.041Z,1.60
2022-09-01T04:49:21.641Z,1.90
2022-09-01T04:51:53.964Z,1.60
2022-09-01T04:54:24.437Z,1.60
2022-09-01T04:56:54.277Z,1.50
2022-09-01T04:59:23.980Z,2.00
2022-09-01T05:01:54.359Z,2.50
2022-09-01T05:04:26.866Z,1.90
2022-09-01T05:06:59.338Z,2.00
2022-09-01T05:09:33.061Z,2.30
2022-09-01T05:12:12.738Z,2.10
2022-09-01T05:14:47.697Z,2.10
2022-09-01T05:17:16.716Z,1.90
2022-09-01T05:19:47.345Z,2.00
2022-09-01T05:22:16.207Z,1.90
2022-09-01T05:24:44.019Z,1.80
2022-09-01T05:27:14.313Z,2.00
2022-09-01T05:29:41.824Z,1.90
2022-09-01T05:32:10.742Z,1.80
2022-09-01T05:34:39.435Z,2.00
2022-09-01T05:37:08.770Z,2.20
2022-09-01T05:39:37.577Z,1.80
2022-09-01T05:42:07.380Z,2.00
2022-09-01T05:44:35.688Z,2.20
2022-09-01T05:47:04.771Z,2.20
2022-09-01T05:49:32.858Z,2.00
2022-09-01T05:52:00.530Z,2.20
2022-09-01T05:54:28.989Z,2.10
2022-09-01T05:57:17.498Z,2.00
2022-09-01T05:59:53.078Z,1.50
2022-09-01T06:02:22.027Z,1.90
2022-09-01T06:04:49.815Z,1.80
2022-09-01T06:07:18.252Z,2.00
2022-09-01T06:09:48.165Z,2.40
2022-09-01T06:12:19.754Z,2.00
2022-09-01T06:14:48.837Z,1.70
2022-09-01T06:17:21.443Z,1.80
2022-09-01T06:19:49.297Z,2.10
2022-09-01T06:22:16.870Z,2.10
2022-09-01T06:24:46.288Z,2.10
2022-09-01T06:27:19.702Z,2.20
2022-09-01T06:29:52.981Z,1.90
2022-09-01T06:32:21.002Z,1.90
2022-09-01T06:34:50.511Z,1.90
2022-09-01T06:37:22.066Z,2.30
2022-09-01T06:39:50.556Z,1.80
2022-09-01T06:42:19.330Z,2.00
2022-09-01T06:44:47.298Z,1.70
2022-09-01T06:47:15.442Z,1.80
2022-09-01T06:49:44.166Z,1.60
2022-09-01T06:52:13.168Z,1.60
2022-09-01T06:54:43.203Z,1.70
2022-09-01T06:59:59.609Z,1.30
2022-09-01T07:02:27.547Z,1.70
2022-09-01T07:04:55.207Z,1.60
2022-09-01T07:10:22.819Z,1.60
2022-09-01T07:13:07.047Z,1.70
2022-09-01T07:18:28.173Z,1.60
2022-09-01T07:21:07.418Z,1.70
2022-09-01T07:24:07.676Z,1.70
2022-09-01T07:26:35.089Z,1.30
2022-09-01T07:29:24.457Z,1.40
2022-09-01T07:34:46.177Z,1.60
2022-09-01T07:42:59.010Z,1.60
2022-09-01T07:43:12.085Z,1.60
2022-09-01T07:45:47.136Z,1.60
2022-09-01T07:51:35.675Z,1.40
2022-09-01T07:53:55.812Z,1.80
2022-09-01T07:56:25.870Z,1.70
2022-09-01T07:58:57.010Z,1.40
2022-09-01T08:01:27.193Z,1.30
2022-09-01T08:03:57.642Z,1.30
2022-09-01T08:06:28.061Z,1.50
2022-09-01T08:08:57.988Z,1.70
2022-09-01T08:11:51.483Z,1.80
2022-09-01T08:14:18.269Z,1.60
2022-09-01T08:16:53.443Z,1.60
2022-09-01T08:19:21.448Z,1.40
2022-09-01T08:21:49.148Z,1.10
2022-09-01T08:24:16.721Z,1.00
2022-09-01T08:26:45.265Z,0.70
2022-09-01T08:29:12.942Z,0.70
2022-09-01T08:31:42.290Z,0.80
2022-09-01T08:34:12.866Z,0.70
2022-09-01T08:36:40.615Z,0.50
2022-09-01T08:39:12.703Z,0.70
2022-09-01T08:41:47.510Z,0.90
2022-09-01T08:44:28.074Z,0.90
2022-09-01T08:47:03.277Z,0.90
2022-09-01T08:49:42.606Z,0.70
2022-09-01T08:52:21.858Z,1.20
2022-09-01T08:54:53.841Z,0.80
2022-09-01T08:57:27.145Z,0.60
2022-09-01T08:59:54.707Z,0.70
2022-09-01T09:02:36.343Z,0.70
2022-09-01T09:05:22.405Z,0.70
2022-09-01T09:08:08.455Z,0.60
2022-09-01T09:10:48.683Z,0.60
2022-09-01T09:13:26.723Z,0.60
2022-09-01T09:16:14.735Z,0.80
2022-09-01T09:18:56.662Z,0.90
2022-09-01T09:21:29.941Z,0.50
2022-09-01T09:24:03.331Z,0.80
2022-09-01T09:26:42.220Z,0.60
2022-09-01T09:29:10.886Z,0.70
2022-09-01T09:31:48.118Z,0.60
2022-09-01T09:34:32.799Z,0.60
2022-09-01T09:37:17.028Z,1.10
2022-09-01T09:39:45.071Z,1.30
2022-09-01T09:42:15.374Z,0.50
2022-09-01T09:44:48.237Z,0.70
2022-09-01T09:47:43.653Z,0.60
2022-09-01T09:50:20.925Z,0.70
2022-09-01T09:52:50.210Z,0.50
2022-09-01T09:55:27.968Z,0.40
2022-09-01T09:57:59.799Z,0.50
2022-09-01T10:00:31.679Z,0.40
2022-09-01T10:03:07.899Z,0.50
2022-09-01T10:05:42.783Z,0.60
2022-09-01T10:08:14.211Z,1.10
2022-09-01T10:10:45.038Z,0.90
2022-09-01T10:13:26.936Z,1.10
2022-09-01T10:15:57.988Z,1.00
2022-09-01T10:18:30.251Z,0.40
2022-09-01T10:21:00.727Z,0.90
2022-09-01T10:23:34.083Z,0.50
2022-09-01T10:26:09.499Z,0.70
2022-09-01T10:28:49.479Z,0.40
2022-09-01T10:31:20.239Z,0.70
2022-09-01T10:33:48.962Z,0.50
2022-09-01T10:36:17.683Z,0.70
2022-09-01T10:38:50.537Z,1.10
2022-09-01T10:41:59.296Z,1.10
2022-09-01T10:44:33.123Z,0.50
2022-09-01T10:47:08.760Z,0.50
2022-09-01T10:49:59.653Z,0.50
2022-09-01T10:52:55.346Z,0.50
2022-09-01T10:55:28.435Z,0.50
2022-09-01T10:59:30.594Z,0.70
2022-09-01T11:04:00.492Z,0.70
2022-09-01T11:09:43.507Z,0.40
2022-09-01T11:12:45.915Z,0.40
2022-09-01T11:15:34.108Z,0.20
2022-09-01T11:18:02.751Z,0.60
2022-09-01T11:20:34.106Z,0.50
2022-09-01T11:23:05.854Z,0.50
2022-09-01T11:25:41.440Z,0.60
2022-09-01T11:28:31.198Z,0.30
2022-09-01T11:31:02.176Z,0.50
2022-09-01T11:33:41.891Z,0.60
2022-09-01T11:36:18.082Z,0.50
2022-09-01T11:38:50.583Z,0.40
2022-09-01T11:41:24.095Z,0.40
2022-09-01T11:43:57.483Z,0.60
2022-09-01T11:46:28.947Z,0.40
2022-09-01T11:48:59.691Z,0.40
2022-09-01T11:51:27.376Z,0.40
2022-09-01T11:54:00.370Z,0.30
2022-09-01T11:56:29.002Z,0.30
2022-09-01T11:58:56.634Z,0.20
2022-09-01T12:01:32.533Z,0.40
2022-09-01T12:04:21.609Z,0.50
2022-09-01T12:06:54.851Z,0.40
2022-09-01T12:09:30.777Z,0.30
2022-09-01T12:11:58.599Z,0.50
2022-09-01T12:14:26.374Z,0.30
2022-09-01T12:17:01.155Z,0.30
2022-09-01T12:19:31.156Z,0.30
2022-09-01T12:22:02.748Z,0.20
2022-09-01T12:24:34.709Z,0.30
2022-09-01T12:27:04.291Z,0.20
2022-09-01T12:29:32.567Z,0.30
2022-09-01T12:32:01.274Z,0.30
2022-09-01T12:34:38.798Z,0.40
2022-09-01T12:37:10.429Z,0.20
2022-09-01T12:39:40.102Z,0.30
2022-09-01T12:42:24.286Z,0.20
2022-09-01T12:44:53.730Z,0.40
2022-09-01T12:47:49.977Z,0.30
2022-09-01T12:50:45.509Z,0.30
2022-09-01T12:53:27.922Z,0.40
2022-09-01T12:56:20.248Z,0.20
2022-09-01T12:58:53.220Z,0.40
2022-09-01T13:01:39.269Z,0.40
2022-09-01T13:04:12.048Z,0.40
2022-09-01T13:06:39.608Z,0.40
2022-09-01T13:09:07.599Z,0.40
2022-09-01T13:14:25.039Z,0.40
2022-09-01T13:16:52.849Z,0.30
2022-09-01T13:19:27.831Z,0.40
2022-09-01T13:21:58.173Z,0.20
2022-09-01T13:24:29.421Z,0.30
2022-09-01T13:29:46.776Z,0.30
2022-09-01T13:32:19.152Z,0.30
2022-09-01T13:34:49.231Z,0.30
2022-09-01T13:37:18.605Z,0.30
2022-09-01T13:39:47.742Z,0.20
2022-09-01T13:42:16.298Z,0.20
2022-09-01T13:44:44.403Z,0.10
2022-09-01T13:47:29.038Z,0.30
2022-09-01T13:50:14.490Z,0.30
2022-09-01T13:52:45.377Z,0.40
2022-09-01T13:55:16.176Z,0.40
2022-09-01T13:57:43.735Z,0.20
2022-09-01T14:00:16.509Z,0.30
2022-09-01T14:02:49.636Z,0.50
2022-09-01T14:05:20.938Z,0.30
2022-09-01T14:07:48.907Z,0.40
2022-09-01T14:10:17.691Z,0.20
2022-09-01T14:12:45.988Z,0.40
2022-09-01T14:15:17.835Z,0.50
2022-09-01T14:17:49.543Z,0.30
2022-09-01T14:20:21.167Z,0.30
2022-09-01T14:22:49.956Z,0.30
2022-09-01T14:25:18.962Z,0.20
2022-09-01T14:27:48.311Z,0.20
2022-09-01T14:30:18.985Z,0.20
2022-09-01T14:32:47.132Z,0.30
2022-09-01T14:35:15.743Z,0.30
2022-09-01T14:37:44.210Z,0.10
2022-09-01T14:40:16.690Z,0.30
2022-09-01T14:42:48.441Z,0.30
2022-09-01T14:45:17.845Z,0.00
2022-09-01T14:47:45.549Z,0.20
2022-09-01T14:50:17.265Z,0.10
2022-09-01T14:52:48.624Z,0.30
2022-09-01T14:55:17.097Z,0.30
2022-09-01T14:57:44.731Z,0.20
2022-09-01T15:00:13.576Z,0.30
2022-09-01T15:02:43.269Z,0.20
2022-09-01T15:05:12.334Z,0.20
2022-09-01T15:07:40.506Z,0.20
2022-09-01T15:10:11.558Z,0.30
2022-09-01T15:12:44.555Z,0.30
2022-09-01T15:15:12.727Z,0.30
2022-09-01T15:17:42.265Z,0.30
2022-09-01T15:20:31.015Z,0.20
2022-09-01T15:22:58.649Z,0.60
2022-09-01T15:25:26.686Z,0.40
2022-09-01T15:27:54.198Z,0.30
2022-09-01T15:30:22.136Z,0.40
2022-09-01T15:32:53.493Z,0.30
2022-09-01T15:35:21.930Z,0.30
2022-09-01T15:37:50.863Z,0.30
2022-09-01T15:40:19.851Z,0.30
2022-09-01T15:42:47.754Z,0.20
2022-09-01T15:45:18.144Z,0.50
2022-09-01T15:47:47.643Z,0.40
2022-09-01T15:50:21.976Z,0.40
2022-09-01T15:52:52.851Z,0.10
2022-09-01T15:55:22.919Z,0.20
2022-09-01T15:57:53.947Z,0.30
2022-09-01T16:00:23.470Z,0.30
2022-09-01T16:02:55.716Z,0.20
2022-09-01T16:05:25.318Z,0.10
2022-09-01T16:07:54.042Z,0.30
2022-09-01T16:10:22.489Z,0.30
2022-09-01T16:12:51.190Z,0.30
2022-09-01T16:15:21.967Z,0.30
2022-09-01T16:18:13.287Z,0.40
2022-09-01T16:20:49.691Z,0.30
2022-09-01T16:23:20.134Z,0.50
2022-09-01T16:25:48.141Z,0.60
2022-09-01T16:28:26.664Z,0.60
2022-09-01T16:30:59.213Z,0.70
2022-09-01T16:33:27.017Z,0.80
2022-09-01T16:36:10.497Z,0.50
2022-09-01T16:38:46.606Z,0.70
2022-09-01T16:41:35.600Z,0.50
2022-09-01T16:44:13.810Z,0.50
2022-09-01T16:46:48.295Z,0.70
2022-09-01T16:49:27.480Z,0.50
2022-09-01T16:52:04.765Z,0.50
2022-09-01T16:54:47.898Z,0.80
2022-09-01T16:57:27.501Z,0.70
2022-09-01T16:59:58.146Z,0.90
2022-09-01T17:02:36.972Z,0.60
2022-09-01T17:05:16.615Z,0.60
2022-09-01T17:07:51.419Z,0.70
2022-09-01T17:10:32.243Z,0.60
2022-09-01T17:13:13.636Z,0.40
2022-09-01T17:15:43.352Z,0.40
2022-09-01T17:18:21.726Z,0.40
2022-09-01T17:20:58.192Z,0.50
2022-09-01T17:23:30.304Z,0.50
2022-09-01T17:26:02.460Z,0.40
2022-09-01T17:28:35.738Z,0.60
2022-09-01T17:31:12.825Z,0.50
2022-09-01T17:33:56.315Z,0.50
2022-09-01T17:36:35.877Z,0.60
2022-09-01T17:39:14.812Z,0.60
2022-09-01T17:41:47.264Z,0.40
2022-09-01T17:44:23.720Z,0.40
2022-09-01T17:47:00.650Z,0.70
2022-09-01T17:49:35.766Z,0.20
2022-09-01T17:52:14.698Z,0.50
2022-09-01T17:54:54.176Z,0.50
2022-09-01T17:57:26.178Z,0.70
2022-09-01T18:00:01.113Z,0.50
2022-09-01T18:03:14.515Z,0.50
2022-09-01T18:05:45.347Z,0.50
2022-09-01T18:08:30.400Z,0.50
2022-09-01T18:11:02.429Z,0.50
2022-09-01T18:13:52.988Z,0.60
2022-09-01T18:16:25.320Z,0.50
2022-09-01T18:18:53.983Z,0.60
2022-09-01T18:21:26.269Z,0.80
2022-09-01T18:24:01.412Z,0.70
2022-09-01T18:26:32.537Z,0.70
2022-09-01T18:29:02.799Z,0.80
2022-09-01T18:31:51.274Z,0.60
2022-09-01T18:34:28.283Z,0.90
2022-09-01T18:37:02.246Z,0.80
2022-09-01T18:39:40.882Z,0.80
2022-09-01T18:42:16.467Z,0.80
2022-09-01T18:44:53.362Z,1.00
2022-09-01T18:47:29.992Z,1.00
2022-09-01T18:50:03.849Z,1.10
2022-09-01T18:52:49.852Z,0.80
2022-09-01T18:55:25.083Z,0.70
2022-09-01T18:57:55.943Z,1.10
2022-09-01T19:00:30.608Z,0.80
2022-09-01T19:03:09.567Z,0.80
2022-09-01T19:05:53.003Z,1.00
2022-09-01T19:08:30.465Z,1.00
2022-09-01T19:11:03.388Z,0.80
2022-09-01T19:13:50.263Z,1.00
2022-09-01T19:16:30.295Z,1.00
2022-09-01T19:19:07.449Z,1.00
2022-09-01T19:21:37.070Z,1.20
2022-09-01T19:24:09.798Z,1.10
2022-09-01T19:26:42.163Z,0.80
2022-09-01T19:29:16.107Z,1.00
2022-09-01T19:31:49.537Z,1.20
2022-09-01T19:34:20.032Z,1.00
2022-09-01T19:36:56.358Z,1.10
2022-09-01T19:39:29.867Z,1.20
2022-09-01T19:42:04.182Z,1.00
2022-09-01T19:44:37.722Z,1.20
2022-09-01T19:47:10.502Z,1.10
2022-09-01T19:49:43.753Z,1.20
2022-09-01T19:52:17.810Z,1.10
2022-09-01T19:54:53.455Z,1.40
2022-09-01T19:57:26.254Z,1.20
2022-09-01T20:00:05.193Z,1.80
2022-09-01T20:02:37.519Z,1.30
2022-09-01T20:05:15.128Z,1.20
2022-09-01T20:07:53.308Z,1.30
2022-09-01T20:10:37.076Z,1.20
2022-09-01T20:13:30.414Z,1.20
2022-09-01T20:16:08.559Z,1.30
2022-09-01T20:18:42.758Z,1.50
2022-09-01T20:21:20.799Z,1.50
2022-09-01T20:23:53.968Z,1.40
2022-09-01T20:26:26.247Z,1.20
2022-09-01T20:28:59.451Z,1.40
2022-09-01T20:31:31.321Z,1.20
2022-09-01T20:34:04.534Z,1.40
2022-09-01T20:36:37.655Z,1.30
2022-09-01T20:39:29.233Z,1.40
2022-09-01T20:42:04.829Z,1.30
2022-09-01T20:44:40.504Z,1.50
2022-09-01T20:47:08.267Z,1.50
2022-09-01T20:49:38.476Z,1.30
2022-09-01T20:52:13.801Z,1.40
2022-09-01T20:54:54.519Z,1.40
2022-09-01T20:57:33.032Z,1.60
2022-09-01T21:00:06.419Z,1.40
2022-09-01T21:02:45.960Z,1.40
2022-09-01T21:05:25.746Z,3.30
2022-09-01T21:08:09.370Z,10.80
2022-09-01T21:10:43.233Z,3.20
2022-09-01T21:13:24.915Z,1.60
2022-09-01T21:16:01.257Z,1.30
2022-09-01T21:18:43.953Z,1.60
2022-09-01T21:21:21.747Z,1.40
2022-09-01T21:23:49.379Z,1.50
2022-09-01T21:26:17.641Z,1.90
2022-09-01T21:28:48.276Z,1.40
2022-09-01T21:31:16.032Z,1.30
2022-09-01T21:33:43.995Z,1.30
2022-09-01T21:36:11.810Z,1.50
2022-09-01T21:38:39.567Z,1.40
2022-09-01T21:41:12.986Z,1.60
2022-09-01T21:43:44.001Z,1.30
2022-09-01T21:46:13.079Z,1.60
2022-09-01T21:48:40.815Z,1.40
2022-09-01T21:51:08.632Z,1.70
2022-09-01T21:53:36.296Z,1.60
2022-09-01T21:56:04.063Z,1.60
2022-09-01T21:58:32.138Z,1.60
2022-09-01T22:01:01.820Z,1.50
2022-09-01T22:03:29.669Z,1.90
2022-09-01T22:05:57.240Z,1.50
2022-09-01T22:08:25.335Z,1.40
2022-09-01T22:10:54.733Z,1.40
2022-09-01T22:13:24.135Z,1.40
2022-09-01T22:15:53.616Z,1.40
2022-09-01T22:18:22.010Z,1.60
2022-09-01T22:20:49.991Z,1.80
2022-09-01T22:23:19.566Z,1.60
2022-09-01T22:25:47.640Z,1.60
2022-09-01T22:28:15.363Z,1.60
2022-09-01T22:30:48.165Z,1.30
2022-09-01T22:33:16.926Z,1.80
2022-09-01T22:35:47.649Z,1.90
2022-09-01T22:38:15.740Z,1.50
2022-09-01T22:40:48.331Z,1.60
2022-09-01T22:43:17.060Z,1.60
2022-09-01T22:45:45.055Z,1.80
2022-09-01T22:48:13.188Z,1.30
2022-09-01T22:50:43.340Z,1.40
2022-09-01T22:53:11.898Z,1.00
2022-09-01T22:55:43.586Z,1.20
2022-09-01T22:58:12.441Z,1.10
2022-09-01T23:00:45.585Z,1.30
2022-09-01T23:03:15.065Z,1.00
2022-09-01T23:05:43.562Z,10.20
2022-09-01T23:08:11.477Z,4.50
2022-09-01T23:10:39.362Z,2.50
2022-09-01T23:13:08.001Z,1.50
2022-09-01T23:15:39.355Z,1.30
2022-09-01T23:18:09.371Z,1.30
2022-09-01T23:20:39.898Z,1.30
2022-09-01T23:23:08.194Z,1.50
2022-09-01T23:25:35.851Z,1.30
2022-09-01T23:28:04.215Z,1.00
2022-09-01T23:30:37.325Z,1.30
2022-09-01T23:33:05.458Z,1.30
2022-09-01T23:35:33.331Z,1.10
2022-09-01T23:38:00.976Z,1.10
2022-09-01T23:40:28.700Z,1.10
2022-09-01T23:42:56.456Z,1.20
2022-09-01T23:45:35.700Z,1.10
2022-09-01T23:48:04.277Z,1.40
2022-09-01T23:50:31.777Z,1.00
2022-09-01T23:52:59.393Z,1.20
2022-09-01T23:55:27.260Z,1.00
2022-09-01T23:57:55.491Z,1.20
